Time;durP1;ratioP1;P1;durP2;ratioP2;P2;SDS_P1;SDS_P2;PMS_P1;PMS_P2;Temp;Humidity;BMP_temperature;BMP_pressure;BME280_temperature;BME280_humidity;BME280_pressure;Samples;Min_cycle;Max_cycle;Signal;HPM_P1;HPM_P2
2022/07/29 00:02:14;;;;;;;3.97;0.93;;;15.20;99.90;;;;;;5032748;28;20043;-73
2022/07/29 00:04:40;;;;;;;2.47;0.90;;;15.30;99.90;;;;;;4993751;28;20042;-72
2022/07/29 00:07:06;;;;;;;3.38;0.75;;;15.20;99.90;;;;;;4993614;28;20482;-73
2022/07/29 00:09:32;;;;;;;4.25;0.95;;;15.20;99.90;;;;;;5025647;28;20046;-73
2022/07/29 00:12:00;;;;;;;3.35;1.00;;;15.20;99.90;;;;;;5012519;28;20037;-73
2022/07/29 00:14:27;;;;;;;1.08;0.55;;;15.20;99.90;;;;;;4976815;28;20570;-73
2022/07/29 00:16:52;;;;;;;1.50;0.60;;;15.20;99.90;;;;;;4996396;28;20033;-74
2022/07/29 00:19:18;;;;;;;3.40;0.90;;;15.20;99.90;;;;;;4993637;28;20176;-72
2022/07/29 00:21:43;;;;;;;2.25;1.30;;;15.20;99.90;;;;;;4996768;28;20141;-72
2022/07/29 00:24:09;;;;;;;2.20;0.95;;;15.10;99.90;;;;;;4980585;28;20150;-72
2022/07/29 00:26:35;;;;;;;3.75;0.80;;;15.20;99.90;;;;;;5010654;28;20054;-73
2022/07/29 00:29:02;;;;;;;1.63;0.80;;;15.10;99.90;;;;;;4996410;28;20105;-72
2022/07/29 00:31:28;;;;;;;2.45;0.73;;;15.10;99.90;;;;;;4993534;28;20093;-73
2022/07/29 00:33:54;;;;;;;3.47;1.00;;;15.10;99.90;;;;;;5001028;28;20037;-70
2022/07/29 00:36:23;;;;;;;2.15;0.98;;;15.10;99.90;;;;;;5008729;28;20069;-72
2022/07/29 00:38:50;;;;;;;3.08;0.90;;;15.10;99.90;;;;;;4998124;28;20875;-72
2022/07/29 00:41:16;;;;;;;2.75;0.82;;;15.10;99.90;;;;;;4993221;28;20041;-72
2022/07/29 00:43:43;;;;;;;2.65;1.02;;;15.10;99.90;;;;;;5012038;28;20050;-71
2022/07/29 00:46:08;;;;;;;3.72;0.95;;;15.00;99.90;;;;;;4993078;28;20045;-71
2022/07/29 00:48:34;;;;;;;3.72;0.70;;;15.10;99.90;;;;;;5004648;28;20038;-71
2022/07/29 00:51:02;;;;;;;3.63;1.00;;;15.10;99.90;;;;;;4998228;28;20037;-71
2022/07/29 00:53:29;;;;;;;2.40;0.90;;;15.10;99.90;;;;;;4979349;28;20105;-71
2022/07/29 00:55:55;;;;;;;3.20;1.10;;;15.10;99.90;;;;;;4991315;28;20052;-71
2022/07/29 00:58:21;;;;;;;2.47;1.10;;;15.00;99.90;;;;;;5027515;28;20518;-71
2022/07/29 01:00:47;;;;;;;3.10;1.17;;;15.00;99.90;;;;;;4993171;28;20068;-71
2022/07/29 01:03:13;;;;;;;2.35;0.90;;;15.00;99.90;;;;;;5028631;28;20037;-70
2022/07/29 01:05:40;;;;;;;2.33;0.98;;;15.00;99.90;;;;;;5007693;28;20062;-71
2022/07/29 01:08:06;;;;;;;2.75;0.82;;;15.00;99.90;;;;;;5011696;28;20057;-71
2022/07/29 01:10:33;;;;;;;3.85;1.00;;;15.00;99.90;;;;;;4992979;28;20191;-70
2022/07/29 01:13:01;;;;;;;2.80;0.70;;;15.00;99.90;;;;;;5009612;28;20053;-70
2022/07/29 01:15:27;;;;;;;2.38;0.60;;;15.00;99.90;;;;;;4998755;28;20073;-71
2022/07/29 01:17:59;;;;;;;1.80;0.90;;;15.00;99.90;;;;;;5024892;28;20568;-71
2022/07/29 01:21:09;;;;;;;2.08;0.80;;;15.00;99.90;;;;;;4998306;28;20034;-71
2022/07/29 01:23:46;;;;;;;3.35;1.00;;;15.00;99.90;;;;;;5025416;28;20041;-72
2022/07/29 01:26:34;;;;;;;2.10;1.10;;;15.00;99.90;;;;;;4994260;28;20444;-71
2022/07/29 01:29:09;;;;;;;3.80;0.93;;;15.00;99.90;;;;;;5025610;28;20065;-71
2022/07/29 01:32:11;;;;;;;1.92;0.80;;;15.00;99.90;;;;;;4976250;28;20054;-71
2022/07/29 01:35:11;;;;;;;1.88;0.85;;;15.00;99.90;;;;;;4993013;28;20132;-70
2022/07/29 01:37:45;;;;;;;2.88;0.90;;;15.10;99.90;;;;;;4971352;28;20049;-70
2022/07/29 01:40:42;;;;;;;3.60;0.85;;;15.10;99.90;;;;;;5010090;28;20073;-70
2022/07/29 01:43:22;;;;;;;2.85;1.00;;;15.10;99.90;;;;;;4991282;28;20418;-72
2022/07/29 01:45:57;;;;;;;2.03;0.73;;;15.10;99.90;;;;;;4996906;28;20418;-70
2022/07/29 01:48:30;;;;;;;2.65;1.05;;;15.10;99.90;;;;;;4992546;28;20423;-70
2022/07/29 01:51:04;;;;;;;2.08;0.70;;;15.10;99.90;;;;;;5024795;28;20092;-70
2022/07/29 01:53:38;;;;;;;4.82;0.73;;;15.00;99.90;;;;;;5024012;28;20125;-70
2022/07/29 01:56:06;;;;;;;1.55;0.90;;;15.10;99.90;;;;;;4992803;28;20480;-70
2022/07/29 01:58:35;;;;;;;4.95;1.10;;;15.00;99.90;;;;;;5009124;28;20478;-70
2022/07/29 02:01:03;;;;;;;5.47;1.10;;;15.00;99.90;;;;;;4997868;28;20038;-70
2022/07/29 02:03:31;;;;;;;4.72;1.10;;;15.00;99.90;;;;;;5008051;28;20058;-70
2022/07/29 02:05:59;;;;;;;5.28;1.13;;;15.00;99.90;;;;;;4982372;28;20048;-70
2022/07/29 02:08:26;;;;;;;3.83;1.10;;;15.00;99.90;;;;;;4991890;28;20050;-70
2022/07/29 02:10:54;;;;;;;4.20;1.13;;;15.00;99.90;;;;;;5028042;28;20042;-73
2022/07/29 02:13:23;;;;;;;1.55;0.68;;;15.00;99.90;;;;;;4991935;28;20530;-71
2022/07/29 02:15:51;;;;;;;3.17;0.95;;;14.90;99.90;;;;;;4992140;28;20034;-71
2022/07/29 02:18:18;;;;;;;2.60;1.00;;;14.90;99.90;;;;;;4976902;28;20033;-70
2022/07/29 02:20:48;;;;;;;3.53;0.85;;;14.90;99.90;;;;;;4993881;28;20045;-70
2022/07/29 02:23:22;;;;;;;4.07;0.73;;;14.80;99.90;;;;;;4992787;28;20046;-71
2022/07/29 02:25:51;;;;;;;3.15;1.25;;;14.90;99.90;;;;;;5024784;28;20037;-71
2022/07/29 02:28:18;;;;;;;4.90;1.25;;;14.80;99.90;;;;;;4989837;28;20038;-71
2022/07/29 02:30:46;;;;;;;3.00;0.77;;;14.80;99.90;;;;;;4976727;28;20073;-71
2022/07/29 02:33:14;;;;;;;2.05;0.70;;;14.80;99.90;;;;;;4992041;28;20087;-71
2022/07/29 02:35:42;;;;;;;2.72;0.90;;;14.80;99.90;;;;;;5005773;28;20042;-71
2022/07/29 02:41:00;;;;;;;2.50;0.88;;;14.80;99.90;;;;;;4993802;28;20647;-71
2022/07/29 02:43:27;;;;;;;3.08;0.80;;;14.80;99.90;;;;;;4979615;28;20117;-71
2022/07/29 02:45:56;;;;;;;4.05;0.93;;;14.80;99.90;;;;;;4994485;28;20067;-71
2022/07/29 02:48:31;;;;;;;4.13;0.77;;;14.80;99.90;;;;;;4995862;28;20059;-71
2022/07/29 02:51:06;;;;;;;6.05;1.35;;;14.80;99.90;;;;;;4995010;28;20042;-70
2022/07/29 02:53:34;;;;;;;1.42;0.57;;;14.80;99.90;;;;;;4999210;28;20477;-71
2022/07/29 02:56:07;;;;;;;4.32;0.82;;;14.80;99.90;;;;;;5012815;28;20108;-71
2022/07/29 02:58:52;;;;;;;1.95;0.75;;;14.80;99.90;;;;;;5032260;28;20041;-71
2022/07/29 03:01:27;;;;;;;3.63;0.75;;;14.80;99.90;;;;;;5027358;28;20046;-72
2022/07/29 03:03:54;;;;;;;2.15;1.00;;;14.80;99.90;;;;;;5031505;28;20048;-72
2022/07/29 03:06:22;;;;;;;3.28;0.95;;;14.70;99.90;;;;;;5010267;28;20058;-72
2022/07/29 03:08:50;;;;;;;2.53;0.85;;;14.80;99.90;;;;;;4998172;28;20105;-72
2022/07/29 03:11:17;;;;;;;2.13;0.88;;;14.70;99.90;;;;;;4993776;28;20529;-72
2022/07/29 03:13:43;;;;;;;2.13;0.65;;;14.70;99.90;;;;;;4997648;28;20452;-72
2022/07/29 03:16:10;;;;;;;3.33;0.80;;;14.70;99.90;;;;;;4996584;28;20050;-72
2022/07/29 03:18:37;;;;;;;4.35;1.10;;;14.70;99.90;;;;;;5007726;28;20074;-72
2022/07/29 03:21:03;;;;;;;3.53;0.98;;;14.70;99.90;;;;;;4995689;28;20050;-72
2022/07/29 03:23:29;;;;;;;3.85;1.25;;;14.70;99.90;;;;;;5032461;28;20128;-72
2022/07/29 03:25:55;;;;;;;3.50;1.20;;;14.70;99.90;;;;;;4992063;28;20124;-72
2022/07/29 03:28:22;;;;;;;5.65;1.13;;;14.70;99.90;;;;;;4979297;28;20079;-72
2022/07/29 03:30:48;;;;;;;5.43;1.15;;;14.60;99.90;;;;;;4995489;28;20038;-72
2022/07/29 03:33:14;;;;;;;2.40;0.95;;;14.60;99.90;;;;;;4997604;28;20041;-72
2022/07/29 03:35:40;;;;;;;3.70;1.15;;;14.60;99.90;;;;;;4994795;28;20045;-72
2022/07/29 03:38:06;;;;;;;2.13;0.80;;;14.60;99.90;;;;;;5029027;28;20504;-72
2022/07/29 03:40:37;;;;;;;3.88;1.08;;;14.60;99.90;;;;;;4993654;28;20050;-72
2022/07/29 03:43:05;;;;;;;3.42;1.30;;;14.60;99.90;;;;;;5012306;28;20093;-72
2022/07/29 03:45:33;;;;;;;2.42;0.95;;;14.50;99.90;;;;;;5024192;28;20073;-72
2022/07/29 03:48:09;;;;;;;2.58;1.00;;;14.50;99.90;;;;;;5025250;28;20121;-72
2022/07/29 03:50:36;;;;;;;5.95;1.70;;;14.50;99.90;;;;;;4990856;28;20038;-72
2022/07/29 03:53:02;;;;;;;4.05;1.27;;;14.50;99.90;;;;;;4992335;28;20046;-72
2022/07/29 03:55:32;;;;;;;2.72;0.85;;;14.50;99.90;;;;;;5000234;28;20067;-72
2022/07/29 03:57:58;;;;;;;3.90;1.17;;;14.50;99.90;;;;;;5027132;28;20052;-71
2022/07/29 04:00:26;;;;;;;4.10;1.00;;;14.50;99.90;;;;;;4997367;28;20084;-72
2022/07/29 04:02:52;;;;;;;3.95;0.98;;;14.50;99.90;;;;;;5029712;28;20049;-72
2022/07/29 04:05:18;;;;;;;4.13;1.00;;;14.50;99.90;;;;;;4998535;28;20539;-72
2022/07/29 04:07:45;;;;;;;1.83;0.70;;;14.50;99.90;;;;;;4996138;28;20053;-72
2022/07/29 04:10:11;;;;;;;4.32;1.33;;;14.50;99.90;;;;;;4972626;28;20045;-72
2022/07/29 04:12:37;;;;;;;2.25;0.93;;;14.50;99.90;;;;;;5030009;28;20038;-73
2022/07/29 04:15:04;;;;;;;3.28;0.90;;;14.50;99.90;;;;;;5025770;28;20061;-72
2022/07/29 04:17:29;;;;;;;6.45;0.95;;;14.50;99.90;;;;;;4993391;28;20394;-72
2022/07/29 04:19:55;;;;;;;4.00;1.00;;;14.50;99.90;;;;;;4994927;28;20037;-72
2022/07/29 04:22:21;;;;;;;5.63;1.27;;;14.50;99.90;;;;;;4993697;28;20497;-72
2022/07/29 04:24:46;;;;;;;4.25;1.27;;;14.50;99.90;;;;;;5026046;28;20045;-73
2022/07/29 04:27:12;;;;;;;4.65;1.15;;;14.40;99.90;;;;;;5027481;28;20371;-73
2022/07/29 04:29:38;;;;;;;3.65;1.13;;;14.50;99.90;;;;;;4993778;28;20494;-72
2022/07/29 04:32:04;;;;;;;9.05;6.28;;;14.50;99.90;;;;;;4995089;28;20034;-72
2022/07/29 04:34:29;;;;;;;9.50;4.53;;;14.40;99.90;;;;;;4992530;28;20052;-72
2022/07/29 04:36:55;;;;;;;1.73;0.88;;;14.50;99.90;;;;;;5027338;28;20038;-72
2022/07/29 04:39:21;;;;;;;6.68;1.45;;;14.50;99.90;;;;;;5009276;28;20042;-72
2022/07/29 04:41:47;;;;;;;4.18;0.98;;;14.40;99.90;;;;;;4993823;28;20095;-72
2022/07/29 04:44:12;;;;;;;5.22;1.10;;;14.50;99.90;;;;;;4976005;28;20038;-72
2022/07/29 04:46:38;;;;;;;3.15;1.00;;;14.50;99.90;;;;;;5031705;28;20037;-72
2022/07/29 04:49:04;;;;;;;6.28;1.25;;;14.50;99.90;;;;;;4992921;28;20081;-72
2022/07/29 04:51:30;;;;;;;13.60;9.63;;;14.50;99.90;;;;;;4996480;28;20046;-73
2022/07/29 04:53:56;;;;;;;6.15;2.42;;;14.50;99.90;;;;;;5012810;28;20069;-73
2022/07/29 04:56:22;;;;;;;2.92;0.80;;;14.50;99.90;;;;;;5031763;28;20497;-71
2022/07/29 04:58:48;;;;;;;3.75;1.10;;;14.50;99.90;;;;;;4991168;28;20048;-71
2022/07/29 05:01:14;;;;;;;4.95;1.13;;;14.50;99.90;;;;;;5006238;28;20080;-70
2022/07/29 05:03:40;;;;;;;3.75;1.27;;;14.50;99.90;;;;;;5026550;28;20382;-71
2022/07/29 05:06:06;;;;;;;5.03;1.58;;;14.50;99.90;;;;;;5028547;28;20068;-71
2022/07/29 05:08:32;;;;;;;2.15;1.13;;;14.40;99.90;;;;;;5009937;28;20044;-71
2022/07/29 05:10:58;;;;;;;3.42;0.90;;;14.50;99.90;;;;;;4993849;28;20077;-71
2022/07/29 05:13:23;;;;;;;2.95;1.20;;;14.50;99.90;;;;;;4992452;28;20033;-70
2022/07/29 05:15:49;;;;;;;3.42;1.15;;;14.50;99.90;;;;;;5023495;28;20131;-70
2022/07/29 05:18:15;;;;;;;3.13;1.38;;;14.50;99.90;;;;;;4996415;28;20041;-70
2022/07/29 05:20:41;;;;;;;4.00;1.23;;;14.40;99.90;;;;;;4989855;28;20038;-70
2022/07/29 05:23:07;;;;;;;2.80;0.90;;;14.50;99.90;;;;;;4996241;28;20187;-71
2022/07/29 05:25:32;;;;;;;3.40;1.10;;;14.40;99.90;;;;;;5024756;28;20041;-71
2022/07/29 05:27:58;;;;;;;4.40;1.10;;;14.50;99.90;;;;;;5024578;28;20046;-71
2022/07/29 05:30:24;;;;;;;6.47;1.48;;;14.50;99.90;;;;;;5008409;28;20121;-71
2022/07/29 05:32:50;;;;;;;4.18;1.17;;;14.50;99.90;;;;;;4991761;28;20134;-71
2022/07/29 05:35:16;;;;;;;3.30;1.30;;;14.50;99.90;;;;;;5007888;28;20339;-71
2022/07/29 05:37:41;;;;;;;5.45;1.20;;;14.50;99.90;;;;;;4991867;28;20049;-71
2022/07/29 05:40:08;;;;;;;6.38;1.25;;;14.60;99.90;;;;;;5022387;28;20112;-71
2022/07/29 05:42:34;;;;;;;4.28;1.70;;;14.60;99.90;;;;;;4996509;28;20500;-71
2022/07/29 05:45:01;;;;;;;2.30;1.15;;;14.70;99.90;;;;;;4991678;28;20045;-71
2022/07/29 05:47:27;;;;;;;4.70;2.35;;;14.70;99.90;;;;;;4993108;28;20044;-71
2022/07/29 05:49:53;;;;;;;3.97;1.13;;;14.70;99.90;;;;;;4993550;28;20449;-71
2022/07/29 05:52:19;;;;;;;2.92;1.08;;;14.70;99.90;;;;;;4991245;28;20117;-71
2022/07/29 05:54:45;;;;;;;5.32;1.42;;;14.80;99.90;;;;;;4994331;28;20136;-71
2022/07/29 05:57:22;;;;;;;4.22;2.80;;;14.80;99.90;;;;;;5024673;28;20545;-71
2022/07/29 05:59:48;;;;;;;3.53;1.27;;;14.90;99.90;;;;;;4992287;28;20120;-71
2022/07/29 06:02:15;;;;;;;2.05;1.08;;;15.00;99.90;;;;;;4998138;28;20116;-71
2022/07/29 06:04:40;;;;;;;5.60;1.30;;;15.10;99.90;;;;;;4994016;28;20040;-71
2022/07/29 06:07:06;;;;;;;7.15;1.38;;;15.20;99.90;;;;;;5025274;28;20405;-71
2022/07/29 06:09:33;;;;;;;2.55;1.00;;;15.30;99.90;;;;;;4995967;28;20073;-71
2022/07/29 06:11:59;;;;;;;1.88;1.20;;;15.30;99.90;;;;;;4993372;28;20059;-71
2022/07/29 06:14:26;;;;;;;6.22;1.33;;;15.30;99.90;;;;;;5027544;28;20049;-71
2022/07/29 06:16:52;;;;;;;5.07;1.23;;;15.40;99.90;;;;;;4996890;28;20057;-71
2022/07/29 06:19:18;;;;;;;2.83;1.13;;;15.40;99.90;;;;;;4998233;28;20099;-71
2022/07/29 06:21:45;;;;;;;4.35;1.48;;;15.50;99.90;;;;;;5028811;28;20049;-71
2022/07/29 06:24:12;;;;;;;2.33;1.05;;;15.60;99.90;;;;;;5030686;28;20077;-71
2022/07/29 06:26:39;;;;;;;2.83;1.13;;;15.70;99.90;;;;;;4978168;28;20061;-71
2022/07/29 06:29:05;;;;;;;8.27;1.80;;;15.70;99.90;;;;;;5011928;28;20044;-72
2022/07/29 06:31:31;;;;;;;4.70;1.27;;;15.80;99.90;;;;;;4994403;28;20742;-72
2022/07/29 06:33:57;;;;;;;5.22;1.40;;;15.90;99.90;;;;;;4996820;28;20128;-71
2022/07/29 06:36:22;;;;;;;4.60;1.17;;;16.00;99.90;;;;;;5028779;28;20034;-71
2022/07/29 06:38:48;;;;;;;4.55;1.15;;;16.00;99.90;;;;;;5028569;28;20049;-71
2022/07/29 06:41:15;;;;;;;3.95;1.20;;;16.00;99.90;;;;;;5013185;28;20100;-71
2022/07/29 06:43:43;;;;;;;4.68;1.17;;;16.10;99.90;;;;;;4994473;28;20125;-72
2022/07/29 06:46:11;;;;;;;5.32;1.15;;;16.10;99.90;;;;;;4999306;28;20037;-72
2022/07/29 06:48:38;;;;;;;7.22;1.60;;;16.10;99.90;;;;;;4978513;28;20053;-72
2022/07/29 06:51:05;;;;;;;4.47;1.63;;;16.10;99.90;;;;;;5002777;28;20586;-71
2022/07/29 06:53:31;;;;;;;5.95;1.48;;;16.00;99.90;;;;;;4992664;28;20066;-71
2022/07/29 06:55:59;;;;;;;7.50;3.58;;;15.90;99.90;;;;;;5000123;28;20064;-71
2022/07/29 06:58:26;;;;;;;8.40;3.75;;;15.90;99.90;;;;;;4996689;28;20037;-71
2022/07/29 07:00:52;;;;;;;6.15;1.38;;;15.80;99.90;;;;;;5031518;28;20068;-71
2022/07/29 07:03:18;;;;;;;3.85;1.27;;;15.80;99.90;;;;;;4996007;28;20150;-71
2022/07/29 07:05:45;;;;;;;2.97;1.63;;;15.90;99.90;;;;;;4996567;28;20092;-71
2022/07/29 07:08:12;;;;;;;4.07;1.27;;;15.90;99.90;;;;;;4995511;28;20044;-71
2022/07/29 07:10:38;;;;;;;6.03;1.35;;;15.90;99.90;;;;;;5011626;28;20111;-71
2022/07/29 07:13:04;;;;;;;3.47;1.15;;;15.90;99.90;;;;;;4994189;28;20046;-71
2022/07/29 07:15:31;;;;;;;6.10;1.17;;;15.80;99.90;;;;;;4993345;28;20041;-72
2022/07/29 07:17:57;;;;;;;6.38;1.55;;;15.80;99.90;;;;;;5028979;28;20512;-72
2022/07/29 07:20:23;;;;;;;2.83;1.23;;;15.80;99.90;;;;;;5029206;28;20194;-72
2022/07/29 07:22:49;;;;;;;7.03;1.80;;;15.90;99.90;;;;;;5030327;28;20049;-71
2022/07/29 07:25:17;;;;;;;2.63;1.00;;;15.90;99.90;;;;;;4994100;28;20099;-72
2022/07/29 07:27:43;;;;;;;4.63;1.58;;;15.90;99.90;;;;;;5028215;28;20490;-72
2022/07/29 07:30:09;;;;;;;4.07;1.58;;;15.90;99.90;;;;;;4993663;28;20038;-72
2022/07/29 07:32:35;;;;;;;4.78;1.42;;;16.00;99.90;;;;;;5029296;28;20041;-72
2022/07/29 07:35:03;;;;;;;4.70;1.30;;;16.10;99.90;;;;;;5025089;28;20501;-72
2022/07/29 07:37:28;;;;;;;5.47;1.30;;;16.10;99.90;;;;;;4998747;28;20046;-72
2022/07/29 07:39:54;;;;;;;2.88;1.23;;;16.20;99.90;;;;;;4996187;28;20065;-71
2022/07/29 07:42:20;;;;;;;5.63;1.50;;;16.30;99.90;;;;;;5027196;28;20417;-71
2022/07/29 07:44:48;;;;;;;2.38;1.05;;;16.40;99.90;;;;;;5027348;28;20081;-71
2022/07/29 07:47:14;;;;;;;5.00;1.40;;;16.40;99.90;;;;;;4999263;28;20104;-71
2022/07/29 07:49:40;;;;;;;4.68;1.60;;;16.40;99.90;;;;;;4993616;28;20049;-71
2022/07/29 07:52:06;;;;;;;4.22;1.40;;;16.40;99.90;;;;;;4997156;28;20136;-72
2022/07/29 07:54:32;;;;;;;2.65;1.30;;;16.50;99.90;;;;;;5025863;28;20125;-72
2022/07/29 07:56:57;;;;;;;4.00;1.38;;;16.50;99.90;;;;;;4995811;28;20041;-71
2022/07/29 07:59:23;;;;;;;3.08;1.27;;;16.60;99.90;;;;;;5027247;28;20335;-71
2022/07/29 08:01:49;;;;;;;3.17;1.33;;;16.70;99.90;;;;;;4994361;28;20441;-71
2022/07/29 08:04:16;;;;;;;5.28;1.63;;;16.70;99.90;;;;;;4995153;28;20052;-72
2022/07/29 08:06:42;;;;;;;4.93;1.20;;;16.80;99.90;;;;;;4993185;28;20564;-72
2022/07/29 08:09:07;;;;;;;4.55;1.33;;;16.90;99.90;;;;;;5024572;28;20482;-72
2022/07/29 08:11:33;;;;;;;9.52;5.35;;;16.90;99.90;;;;;;4991226;28;20076;-72
2022/07/29 08:14:01;;;;;;;9.63;4.45;;;17.00;99.90;;;;;;4988826;28;20060;-72
2022/07/29 08:16:27;;;;;;;4.40;1.60;;;17.10;99.90;;;;;;4974509;28;20053;-72
2022/07/29 08:18:56;;;;;;;5.95;1.52;;;17.30;99.90;;;;;;4987800;28;20057;-73
2022/07/29 08:21:23;;;;;;;3.40;1.23;;;17.60;99.90;;;;;;4993424;28;20049;-72
2022/07/29 08:23:50;;;;;;;3.95;1.20;;;17.80;99.90;;;;;;4998654;28;20056;-72
2022/07/29 08:26:16;;;;;;;6.07;1.45;;;17.80;99.90;;;;;;4993898;28;20505;-72
2022/07/29 08:28:50;;;;;;;4.88;1.40;;;17.80;99.90;;;;;;5028221;28;20514;-72
2022/07/29 08:31:16;;;;;;;6.72;1.60;;;17.90;99.90;;;;;;4993959;28;20111;-73
2022/07/29 08:33:42;;;;;;;5.60;1.52;;;17.90;99.90;;;;;;4975966;28;20382;-72
2022/07/29 08:36:08;;;;;;;2.60;1.25;;;17.90;99.90;;;;;;4994022;28;20049;-72
2022/07/29 08:38:34;;;;;;;5.47;1.73;;;17.90;99.90;;;;;;5024910;28;20389;-73
2022/07/29 08:41:01;;;;;;;3.05;0.90;;;17.80;99.90;;;;;;5026695;28;20552;-73
2022/07/29 08:43:30;;;;;;;6.20;1.25;;;17.90;99.90;;;;;;4976533;28;20100;-73
2022/07/29 08:45:56;;;;;;;4.15;1.20;;;17.80;99.90;;;;;;4991949;28;20062;-72
2022/07/29 08:48:23;;;;;;;2.88;1.25;;;17.80;99.90;;;;;;4995492;28;20072;-73
2022/07/29 08:50:52;;;;;;;6.03;1.20;;;17.90;99.90;;;;;;4994202;28;20056;-73
2022/07/29 08:53:18;;;;;;;3.05;1.40;;;17.80;99.90;;;;;;5028946;28;20540;-72
2022/07/29 08:55:47;;;;;;;3.65;1.40;;;17.80;99.90;;;;;;5028046;28;20478;-72
2022/07/29 08:58:13;;;;;;;2.58;1.00;;;17.90;99.90;;;;;;4994012;28;20675;-72
2022/07/29 09:01:01;;;;;;;4.43;1.30;;;17.90;99.90;;;;;;4993414;28;20076;-73
2022/07/29 09:03:34;;;;;;;5.05;1.48;;;18.00;99.90;;;;;;4995324;28;20041;-73
2022/07/29 09:06:00;;;;;;;5.70;1.30;;;18.00;99.90;;;;;;4994089;28;20089;-72
2022/07/29 09:08:28;;;;;;;4.88;1.10;;;18.00;99.90;;;;;;4992475;28;20104;-72
2022/07/29 09:10:55;;;;;;;5.30;1.35;;;17.90;99.90;;;;;;4994245;28;20038;-72
2022/07/29 09:13:22;;;;;;;3.17;1.27;;;17.90;99.90;;;;;;4992497;28;20121;-73
2022/07/29 09:15:48;;;;;;;3.40;1.20;;;17.90;99.90;;;;;;5026930;28;20049;-72
2022/07/29 09:18:35;;;;;;;3.25;1.20;;;17.90;99.90;;;;;;4991576;28;20046;-73
2022/07/29 09:24:01;;;;;;;3.13;1.40;;;17.80;99.90;;;;;;4992293;28;20374;-72
2022/07/29 09:26:32;;;;;;;2.45;1.00;;;17.80;99.90;;;;;;5028102;28;20347;-72
2022/07/29 09:28:58;;;;;;;3.58;1.40;;;17.70;99.90;;;;;;4988181;28;20064;-72
2022/07/29 09:31:38;;;;;;;4.05;1.17;;;17.70;99.90;;;;;;4995386;28;20045;-72
2022/07/29 09:34:05;;;;;;;5.63;1.50;;;17.80;99.90;;;;;;5024454;28;20038;-72
2022/07/29 09:36:38;;;;;;;6.20;1.90;;;17.90;99.90;;;;;;5013384;28;20478;-73
2022/07/29 09:39:03;;;;;;;4.93;1.60;;;17.90;99.90;;;;;;5021556;28;20050;-73
2022/07/29 09:41:29;;;;;;;3.17;1.38;;;18.00;99.90;;;;;;4995886;28;20549;-72
2022/07/29 09:43:59;;;;;;;6.28;1.90;;;18.00;99.90;;;;;;5025123;28;20050;-71
2022/07/29 09:46:25;;;;;;;4.97;1.63;;;18.00;99.90;;;;;;5012267;28;20421;-72
2022/07/29 09:49:10;;;;;;;6.15;1.90;;;17.90;99.90;;;;;;4992700;28;20116;-71
2022/07/29 09:51:37;;;;;;;5.13;1.60;;;17.90;99.90;;;;;;5030491;28;20034;-71
2022/07/29 09:54:25;;;;;;;8.32;1.90;;;17.80;99.90;;;;;;5030614;28;20119;-72
2022/07/29 09:56:52;;;;;;;7.30;4.80;;;18.00;99.90;;;;;;4998968;28;20046;-71
2022/07/29 09:59:20;;;;;;;8.82;4.72;;;17.90;99.90;;;;;;4994638;28;20041;-71
2022/07/29 10:01:46;;;;;;;7.80;2.00;;;17.90;99.90;;;;;;4975988;28;20041;-71
2022/07/29 10:04:12;;;;;;;4.70;2.70;;;18.00;99.90;;;;;;4994551;28;20078;-71
2022/07/29 10:06:59;;;;;;;5.25;1.70;;;17.90;99.90;;;;;;4995774;28;20144;-71
2022/07/29 10:09:25;;;;;;;5.35;1.50;;;18.00;99.90;;;;;;5026676;28;20048;-71
2022/07/29 10:12:05;;;;;;;6.57;1.90;;;18.10;99.90;;;;;;4995733;28;20564;-72
2022/07/29 10:14:34;;;;;;;4.55;1.90;;;18.20;99.90;;;;;;5027578;28;20129;-71
2022/07/29 10:17:01;;;;;;;6.13;2.08;;;18.30;99.90;;;;;;5013236;28;20402;-71
2022/07/29 10:19:30;;;;;;;3.55;1.98;;;18.30;99.90;;;;;;5028178;28;20057;-72
2022/07/29 10:22:00;;;;;;;5.65;1.80;;;18.60;99.90;;;;;;4981939;28;20130;-71
2022/07/29 10:24:27;;;;;;;3.05;1.55;;;18.60;99.90;;;;;;4996574;28;20046;-71
2022/07/29 10:26:57;;;;;;;3.92;1.58;;;18.70;99.90;;;;;;5000542;28;20048;-71
2022/07/29 10:29:28;;;;;;;4.43;1.42;;;18.80;99.90;;;;;;5020926;28;20104;-71
2022/07/29 10:32:32;;;;;;;5.85;1.63;;;19.00;99.90;;;;;;4994870;28;20113;-71
2022/07/29 10:35:26;;;;;;;7.13;1.80;;;19.30;99.90;;;;;;4981617;28;20049;-72
2022/07/29 10:38:09;;;;;;;4.70;1.80;;;19.70;99.90;;;;;;4998955;28;20116;-71
2022/07/29 10:43:46;;;;;;;4.97;1.40;;;20.10;99.90;;;;;;5028918;28;20084;-72
2022/07/29 10:46:14;;;;;;;5.60;1.42;;;20.50;99.30;;;;;;5013755;28;20608;-72
2022/07/29 10:49:07;;;;;;;5.35;1.50;;;20.80;99.50;;;;;;4998117;28;20056;-73
2022/07/29 10:51:55;;;;;;;7.60;1.92;;;21.20;97.20;;;;;;4993183;28;20053;-73
2022/07/29 10:54:39;;;;;;;4.90;1.70;;;21.50;97.40;;;;;;4996878;28;20092;-73
2022/07/29 10:57:16;;;;;;;8.35;1.85;;;21.60;94.40;;;;;;4994895;28;20058;-73
2022/07/29 10:59:46;;;;;;;6.05;2.08;;;21.50;95.00;;;;;;5027038;28;20053;-73
2022/07/29 11:02:31;;;;;;;4.95;1.58;;;21.50;94.10;;;;;;4994548;28;20052;-73
2022/07/29 11:04:56;;;;;;;5.60;2.00;;;21.40;93.40;;;;;;4993179;28;20053;-73
2022/07/29 11:07:22;;;;;;;5.88;1.60;;;21.30;94.80;;;;;;5009359;28;20614;-73
2022/07/29 11:10:13;;;;;;;4.15;1.63;;;21.60;93.70;;;;;;5030883;28;20037;-73
2022/07/29 11:12:38;;;;;;;9.15;1.50;;;22.00;91.80;;;;;;4990847;28;20092;-72
2022/07/29 11:15:06;;;;;;;5.90;1.60;;;22.60;92.20;;;;;;5031514;28;20489;-72
2022/07/29 11:17:54;;;;;;;5.25;1.70;;;23.00;90.10;;;;;;5027923;28;20077;-72
2022/07/29 11:20:42;;;;;;;5.50;1.55;;;23.20;84.30;;;;;;4992597;28;20042;-73
2022/07/29 11:23:25;;;;;;;4.25;1.70;;;23.50;89.60;;;;;;4979711;28;20085;-73
2022/07/29 11:26:09;;;;;;;5.38;1.55;;;24.10;82.10;;;;;;5025814;28;20065;-73
2022/07/29 11:28:48;;;;;;;3.35;1.40;;;24.30;84.80;;;;;;4991166;28;20045;-73
2022/07/29 11:31:16;;;;;;;1.73;1.00;;;24.40;85.10;;;;;;5028656;28;20063;-73
2022/07/29 11:33:42;;;;;;;4.47;1.35;;;24.40;82.30;;;;;;5027544;28;20042;-73
2022/07/29 11:36:10;;;;;;;4.18;1.60;;;24.20;80.40;;;;;;4996011;28;20053;-74
2022/07/29 11:38:36;;;;;;;3.15;1.55;;;24.10;80.50;;;;;;4994185;28;20041;-74
2022/07/29 11:41:17;;;;;;;5.65;1.88;;;23.90;83.90;;;;;;5030094;28;20129;-73
2022/07/29 11:43:57;;;;;;;4.93;1.65;;;23.70;80.20;;;;;;5013387;28;20385;-72
2022/07/29 11:46:50;;;;;;;4.50;1.63;;;23.30;81.20;;;;;;4979418;28;20108;-72
2022/07/29 11:49:24;;;;;;;3.60;1.42;;;23.10;80.60;;;;;;4971828;28;20069;-72
2022/07/29 11:51:55;;;;;;;5.63;1.83;;;22.90;81.30;;;;;;5027827;28;20119;-72
2022/07/29 11:54:27;;;;;;;6.30;3.35;;;22.60;83.80;;;;;;4993535;28;20486;-72
2022/07/29 11:56:52;;;;;;;6.22;2.35;;;22.60;84.10;;;;;;4995307;28;20140;-73
2022/07/29 11:59:19;;;;;;;7.63;2.22;;;22.80;84.10;;;;;;4993920;28;20128;-73
2022/07/29 12:01:56;;;;;;;4.10;1.70;;;23.40;85.90;;;;;;5027851;28;20049;-73
2022/07/29 12:04:23;;;;;;;6.93;2.75;;;24.20;82.00;;;;;;4983341;28;20057;-73
2022/07/29 12:06:53;;;;;;;7.35;2.78;;;24.60;80.20;;;;;;4995243;28;20058;-73
2022/07/29 12:09:20;;;;;;;6.10;2.33;;;24.60;77.80;;;;;;4993199;28;20042;-72
2022/07/29 12:11:47;;;;;;;7.78;2.10;;;24.50;79.70;;;;;;4994722;28;20056;-72
2022/07/29 12:14:29;;;;;;;9.00;4.28;;;24.20;78.80;;;;;;4991260;28;20564;-71
2022/07/29 12:16:55;;;;;;;8.55;3.70;;;23.90;78.50;;;;;;4996112;28;20064;-72
2022/07/29 12:19:21;;;;;;;5.72;2.67;;;23.60;79.20;;;;;;4993535;28;20084;-72
2022/07/29 12:21:51;;;;;;;7.00;1.98;;;23.60;79.20;;;;;;4998064;28;20042;-72
2022/07/29 12:24:18;;;;;;;7.18;2.22;;;24.00;82.00;;;;;;4989201;28;20045;-72
2022/07/29 12:26:52;;;;;;;6.70;2.10;;;24.60;80.70;;;;;;4992969;28;20101;-71
2022/07/29 12:29:19;;;;;;;3.90;2.03;;;25.10;73.60;;;;;;4996313;28;20053;-72
2022/07/29 12:31:46;;;;;;;9.30;4.95;;;25.30;73.10;;;;;;4996175;28;20057;-72
2022/07/29 12:34:13;;;;;;;5.78;2.05;;;25.60;72.40;;;;;;5026103;28;20053;-72
2022/07/29 12:36:41;;;;;;;4.45;1.50;;;25.80;70.20;;;;;;5030760;28;20474;-72
2022/07/29 12:39:08;;;;;;;3.97;1.83;;;25.90;72.10;;;;;;4995278;28;20088;-72
2022/07/29 12:41:34;;;;;;;5.18;2.10;;;25.90;69.70;;;;;;4995269;28;20081;-72
2022/07/29 12:44:01;;;;;;;8.48;1.92;;;25.60;71.00;;;;;;4992648;28;20046;-72
2022/07/29 12:46:27;;;;;;;4.97;1.70;;;25.50;70.80;;;;;;4996089;28;20029;-72
2022/07/29 12:48:54;;;;;;;6.25;1.77;;;25.30;70.60;;;;;;4992553;28;20627;-72
2022/07/29 12:51:33;;;;;;;4.20;1.50;;;25.10;70.70;;;;;;4994989;28;20092;-72
2022/07/29 12:54:10;;;;;;;5.35;1.70;;;24.80;69.80;;;;;;4992668;28;20121;-71
2022/07/29 12:56:39;;;;;;;5.40;1.70;;;24.40;68.10;;;;;;4991200;28;20050;-71
2022/07/29 12:59:19;;;;;;;7.00;2.00;;;24.30;70.20;;;;;;4992587;28;20387;-71
2022/07/29 13:01:48;;;;;;;4.72;1.52;;;24.20;70.70;;;;;;5028107;28;20054;-72
2022/07/29 13:04:27;;;;;;;4.43;1.88;;;24.10;71.70;;;;;;5025450;28;20133;-72
2022/07/29 13:07:07;;;;;;;3.95;1.60;;;24.30;71.60;;;;;;4994235;28;20438;-71
2022/07/29 13:09:41;;;;;;;5.75;1.80;;;24.40;71.70;;;;;;4993610;28;20085;-72